sensor_id;sensor_type;location;lat;lon;timestamp;pressure;altitude;pressure_sealevel;temperature;humidity
65557;BME280;52200;53.490;14.376;2023-04-21T00:02:01;102079.28;;;7.93;79.70
65557;BME280;52200;53.490;14.376;2023-04-21T00:04:27;102075.16;;;8.07;79.50
65557;BME280;52200;53.490;14.376;2023-04-21T00:06:52;102074.22;;;7.93;80.00
65557;BME280;52200;53.490;14.376;2023-04-21T00:09:18;102062.44;;;7.95;79.68
65557;BME280;52200;53.490;14.376;2023-04-21T00:11:44;102066.63;;;7.90;80.63
65557;BME280;52200;53.490;14.376;2023-04-21T00:14:10;102067.50;;;7.92;80.32
65557;BME280;52200;53.490;14.376;2023-04-21T00:16:35;102062.31;;;7.77;79.80
65557;BME280;52200;53.490;14.376;2023-04-21T00:19:00;102064.03;;;7.79;80.18
65557;BME280;52200;53.490;14.376;2023-04-21T00:21:31;102069.91;;;7.75;80.29
65557;BME280;52200;53.490;14.376;2023-04-21T00:23:56;102064.72;;;7.58;80.24
65557;BME280;52200;53.490;14.376;2023-04-21T00:26:21;102072.28;;;7.53;81.09
65557;BME280;52200;53.490;14.376;2023-04-21T00:28:47;102069.59;;;7.33;81.05
65557;BME280;52200;53.490;14.376;2023-04-21T00:31:12;102066.78;;;7.01;81.93
65557;BME280;52200;53.490;14.376;2023-04-21T00:33:37;102074.47;;;7.15;82.58
65557;BME280;52200;53.490;14.376;2023-04-21T00:36:03;102070.97;;;7.00;82.92
65557;BME280;52200;53.490;14.376;2023-04-21T00:38:28;102070.00;;;6.86;84.02
65557;BME280;52200;53.490;14.376;2023-04-21T00:40:54;102074.28;;;6.96;83.15
65557;BME280;52200;53.490;14.376;2023-04-21T00:43:19;102071.72;;;6.91;82.97
65557;BME280;52200;53.490;14.376;2023-04-21T00:45:45;102073.28;;;6.78;83.44
65557;BME280;52200;53.490;14.376;2023-04-21T00:48:13;102070.56;;;6.61;83.67
65557;BME280;52200;53.490;14.376;2023-04-21T00:50:39;102068.91;;;6.62;84.02
65557;BME280;52200;53.490;14.376;2023-04-21T00:53:05;102073.84;;;6.56;83.77
65557;BME280;52200;53.490;14.376;2023-04-21T00:55:31;102064.41;;;6.41;84.10
65557;BME280;52200;53.490;14.376;2023-04-21T00:57:56;102066.09;;;6.39;84.33
65557;BME280;52200;53.490;14.376;2023-04-21T01:00:22;102062.63;;;6.32;84.64
65557;BME280;52200;53.490;14.376;2023-04-21T01:02:47;102066.84;;;6.33;84.96
65557;BME280;52200;53.490;14.376;2023-04-21T01:05:13;102065.94;;;6.26;84.91
65557;BME280;52200;53.490;14.376;2023-04-21T01:07:40;102072.59;;;6.21;84.74
65557;BME280;52200;53.490;14.376;2023-04-21T01:10:06;102071.34;;;5.93;85.28
65557;BME280;52200;53.490;14.376;2023-04-21T01:12:32;102071.56;;;6.08;85.36
65557;BME280;52200;53.490;14.376;2023-04-21T01:14:57;102073.97;;;5.99;85.83
65557;BME280;52200;53.490;14.376;2023-04-21T01:17:23;102081.53;;;5.99;85.38
65557;BME280;52200;53.490;14.376;2023-04-21T01:19:49;102077.13;;;5.89;85.92
65557;BME280;52200;53.490;14.376;2023-04-21T01:22:15;102073.84;;;5.93;85.32
65557;BME280;52200;53.490;14.376;2023-04-21T01:24:46;102070.53;;;5.95;85.30
65557;BME280;52200;53.490;14.376;2023-04-21T01:27:14;102073.88;;;5.96;85.25
65557;BME280;52200;53.490;14.376;2023-04-21T01:29:42;102068.66;;;5.82;84.92
65557;BME280;52200;53.490;14.376;2023-04-21T01:32:10;102069.19;;;5.62;86.38
65557;BME280;52200;53.490;14.376;2023-04-21T01:34:37;102063.63;;;5.30;87.37
65557;BME280;52200;53.490;14.376;2023-04-21T01:37:06;102073.09;;;5.45;87.31
65557;BME280;52200;53.490;14.376;2023-04-21T01:39:32;102070.81;;;5.59;86.82
65557;BME280;52200;53.490;14.376;2023-04-21T01:41:58;102069.09;;;5.58;86.87
65557;BME280;52200;53.490;14.376;2023-04-21T01:44:24;102067.25;;;5.46;86.74
65557;BME280;52200;53.490;14.376;2023-04-21T01:46:50;102067.31;;;5.51;86.91
65557;BME280;52200;53.490;14.376;2023-04-21T01:49:16;102071.50;;;5.48;87.24
65557;BME280;52200;53.490;14.376;2023-04-21T01:51:41;102059.00;;;5.56;86.83
65557;BME280;52200;53.490;14.376;2023-04-21T01:54:06;102057.66;;;5.25;87.27
65557;BME280;52200;53.490;14.376;2023-04-21T01:56:32;102057.81;;;5.34;87.63
65557;BME280;52200;53.490;14.376;2023-04-21T01:58:57;102064.75;;;5.49;86.84
65557;BME280;52200;53.490;14.376;2023-04-21T02:01:23;102058.88;;;5.48;87.45
65557;BME280;52200;53.490;14.376;2023-04-21T02:03:48;102063.25;;;5.60;87.50
65557;BME280;52200;53.490;14.376;2023-04-21T02:06:13;102061.50;;;5.55;87.08
65557;BME280;52200;53.490;14.376;2023-04-21T02:08:39;102063.09;;;5.49;86.52
65557;BME280;52200;53.490;14.376;2023-04-21T02:11:04;102060.94;;;5.21;87.47
65557;BME280;52200;53.490;14.376;2023-04-21T02:13:29;102055.41;;;5.42;87.33
65557;BME280;52200;53.490;14.376;2023-04-21T02:15:55;102063.94;;;5.48;87.19
65557;BME280;52200;53.490;14.376;2023-04-21T02:18:20;102060.31;;;5.34;86.37
65557;BME280;52200;53.490;14.376;2023-04-21T02:20:46;102062.03;;;5.37;86.15
65557;BME280;52200;53.490;14.376;2023-04-21T02:23:11;102064.72;;;5.46;86.11
65557;BME280;52200;53.490;14.376;2023-04-21T02:25:36;102066.16;;;5.30;86.78
65557;BME280;52200;53.490;14.376;2023-04-21T02:28:02;102061.03;;;5.25;86.79
65557;BME280;52200;53.490;14.376;2023-04-21T02:30:27;102054.88;;;5.09;86.95
65557;BME280;52200;53.490;14.376;2023-04-21T02:32:53;102054.16;;;5.18;85.98
65557;BME280;52200;53.490;14.376;2023-04-21T02:35:18;102063.41;;;5.18;86.35
65557;BME280;52200;53.490;14.376;2023-04-21T02:37:43;102061.63;;;5.12;86.63
65557;BME280;52200;53.490;14.376;2023-04-21T02:40:09;102064.16;;;5.13;86.08
65557;BME280;52200;53.490;14.376;2023-04-21T02:42:34;102061.66;;;5.13;86.44
65557;BME280;52200;53.490;14.376;2023-04-21T02:45:00;102056.50;;;5.07;85.96
65557;BME280;52200;53.490;14.376;2023-04-21T02:47:25;102052.91;;;4.93;86.12
65557;BME280;52200;53.490;14.376;2023-04-21T02:49:51;102057.16;;;4.95;85.91
65557;BME280;52200;53.490;14.376;2023-04-21T02:52:16;102057.97;;;4.96;85.84
65557;BME280;52200;53.490;14.376;2023-04-21T02:54:41;102053.69;;;4.90;85.93
65557;BME280;52200;53.490;14.376;2023-04-21T02:57:07;102056.13;;;4.86;86.53
65557;BME280;52200;53.490;14.376;2023-04-21T02:59:32;102055.75;;;4.65;86.27
65557;BME280;52200;53.490;14.376;2023-04-21T03:01:57;102057.59;;;4.74;86.71
65557;BME280;52200;53.490;14.376;2023-04-21T03:04:23;102047.75;;;4.44;87.17
65557;BME280;52200;53.490;14.376;2023-04-21T03:06:50;102055.69;;;4.64;86.59
65557;BME280;52200;53.490;14.376;2023-04-21T03:09:15;102058.38;;;4.30;87.37
65557;BME280;52200;53.490;14.376;2023-04-21T03:11:40;102048.88;;;4.57;87.12
65557;BME280;52200;53.490;14.376;2023-04-21T03:14:06;102047.09;;;4.52;87.08
65557;BME280;52200;53.490;14.376;2023-04-21T03:16:32;102047.03;;;4.49;87.57
65557;BME280;52200;53.490;14.376;2023-04-21T03:18:58;102048.09;;;4.61;86.45
65557;BME280;52200;53.490;14.376;2023-04-21T03:21:23;102047.97;;;4.55;86.08
65557;BME280;52200;53.490;14.376;2023-04-21T03:23:48;102044.41;;;4.43;87.07
65557;BME280;52200;53.490;14.376;2023-04-21T03:26:14;102041.56;;;4.28;87.02
65557;BME280;52200;53.490;14.376;2023-04-21T03:28:40;102033.91;;;4.23;88.26
65557;BME280;52200;53.490;14.376;2023-04-21T03:31:05;102036.47;;;4.25;88.14
65557;BME280;52200;53.490;14.376;2023-04-21T03:33:31;102036.69;;;4.35;87.19
65557;BME280;52200;53.490;14.376;2023-04-21T03:35:56;102029.88;;;4.30;87.21
65557;BME280;52200;53.490;14.376;2023-04-21T03:38:21;102032.63;;;4.41;87.05
65557;BME280;52200;53.490;14.376;2023-04-21T03:40:47;102032.81;;;4.10;87.98
65557;BME280;52200;53.490;14.376;2023-04-21T03:43:12;102038.31;;;4.32;87.40
65557;BME280;52200;53.490;14.376;2023-04-21T03:45:37;102028.63;;;4.11;87.60
65557;BME280;52200;53.490;14.376;2023-04-21T03:48:03;102028.47;;;4.03;87.87
65557;BME280;52200;53.490;14.376;2023-04-21T03:50:28;102027.09;;;4.17;88.00
65557;BME280;52200;53.490;14.376;2023-04-21T03:52:54;102028.69;;;4.14;87.93
65557;BME280;52200;53.490;14.376;2023-04-21T03:55:19;102027.91;;;4.16;88.22
65557;BME280;52200;53.490;14.376;2023-04-21T03:57:45;102034.66;;;4.17;88.13
65557;BME280;52200;53.490;14.376;2023-04-21T04:00:10;102034.91;;;4.30;87.88
65557;BME280;52200;53.490;14.376;2023-04-21T04:02:37;102036.59;;;4.31;87.54
65557;BME280;52200;53.490;14.376;2023-04-21T04:05:03;102034.91;;;4.30;87.69
65557;BME280;52200;53.490;14.376;2023-04-21T04:07:32;102035.78;;;4.32;87.82
65557;BME280;52200;53.490;14.376;2023-04-21T04:09:57;102034.13;;;4.32;87.56
65557;BME280;52200;53.490;14.376;2023-04-21T04:12:23;102035.47;;;4.16;88.09
65557;BME280;52200;53.490;14.376;2023-04-21T04:14:48;102040.19;;;4.02;88.64
65557;BME280;52200;53.490;14.376;2023-04-21T04:17:13;102035.41;;;4.13;89.28
65557;BME280;52200;53.490;14.376;2023-04-21T04:19:39;102041.69;;;4.34;88.96
65557;BME280;52200;53.490;14.376;2023-04-21T04:22:04;102035.94;;;4.40;88.75
65557;BME280;52200;53.490;14.376;2023-04-21T04:24:31;102027.63;;;4.44;88.73
65557;BME280;52200;53.490;14.376;2023-04-21T04:26:57;102043.16;;;4.65;88.40
65557;BME280;52200;53.490;14.376;2023-04-21T04:29:24;102037.16;;;4.59;88.43
65557;BME280;52200;53.490;14.376;2023-04-21T04:31:51;102032.47;;;4.79;88.38
65557;BME280;52200;53.490;14.376;2023-04-21T04:34:16;102037.38;;;4.71;87.65
65557;BME280;52200;53.490;14.376;2023-04-21T04:36:42;102037.56;;;4.80;88.83
65557;BME280;52200;53.490;14.376;2023-04-21T04:39:08;102036.88;;;4.89;88.01
65557;BME280;52200;53.490;14.376;2023-04-21T04:41:35;102037.81;;;4.94;88.87
65557;BME280;52200;53.490;14.376;2023-04-21T04:44:00;102038.22;;;5.18;87.88
65557;BME280;52200;53.490;14.376;2023-04-21T04:46:32;102041.56;;;5.16;87.07
65557;BME280;52200;53.490;14.376;2023-04-21T04:48:58;102035.44;;;5.04;88.43
65557;BME280;52200;53.490;14.376;2023-04-21T04:51:23;102040.31;;;5.43;88.05
65557;BME280;52200;53.490;14.376;2023-04-21T04:53:48;102041.91;;;5.38;88.35
65557;BME280;52200;53.490;14.376;2023-04-21T04:56:14;102045.59;;;5.59;87.14
65557;BME280;52200;53.490;14.376;2023-04-21T04:58:40;102034.16;;;5.81;86.91
65557;BME280;52200;53.490;14.376;2023-04-21T05:01:15;102043.72;;;6.01;86.18
65557;BME280;52200;53.490;14.376;2023-04-21T05:03:42;102043.00;;;6.12;85.63
65557;BME280;52200;53.490;14.376;2023-04-21T05:06:08;102041.53;;;6.28;85.62
65557;BME280;52200;53.490;14.376;2023-04-21T05:08:34;102041.81;;;6.52;85.80
65557;BME280;52200;53.490;14.376;2023-04-21T05:10:59;102043.78;;;6.77;85.01
65557;BME280;52200;53.490;14.376;2023-04-21T05:13:24;102047.50;;;7.10;84.14
65557;BME280;52200;53.490;14.376;2023-04-21T05:15:58;102043.56;;;7.47;83.26
65557;BME280;52200;53.490;14.376;2023-04-21T05:18:26;102037.09;;;7.89;81.17
65557;BME280;52200;53.490;14.376;2023-04-21T05:20:51;102041.53;;;8.29;79.70
65557;BME280;52200;53.490;14.376;2023-04-21T05:23:17;102039.94;;;8.49;78.81
65557;BME280;52200;53.490;14.376;2023-04-21T05:25:43;102042.53;;;8.69;77.06
65557;BME280;52200;53.490;14.376;2023-04-21T05:28:08;102044.22;;;8.69;76.05
65557;BME280;52200;53.490;14.376;2023-04-21T05:30:34;102040.88;;;8.84;75.05
65557;BME280;52200;53.490;14.376;2023-04-21T05:32:59;102043.41;;;8.93;75.55
65557;BME280;52200;53.490;14.376;2023-04-21T05:35:24;102040.91;;;8.96;74.58
65557;BME280;52200;53.490;14.376;2023-04-21T05:37:50;102038.38;;;8.95;75.62
65557;BME280;52200;53.490;14.376;2023-04-21T05:40:15;102038.38;;;8.95;75.85
65557;BME280;52200;53.490;14.376;2023-04-21T05:42:41;102040.09;;;9.16;74.93
65557;BME280;52200;53.490;14.376;2023-04-21T05:45:06;102046.00;;;9.21;73.89
65557;BME280;52200;53.490;14.376;2023-04-21T05:47:32;102040.91;;;9.36;73.53
65557;BME280;52200;53.490;14.376;2023-04-21T05:49:57;102037.50;;;9.61;73.33
65557;BME280;52200;53.490;14.376;2023-04-21T05:52:22;102039.91;;;10.21;72.28
65557;BME280;52200;53.490;14.376;2023-04-21T05:54:48;102039.22;;;11.34;68.46
65557;BME280;52200;53.490;14.376;2023-04-21T05:57:13;102037.66;;;12.06;65.89
65557;BME280;52200;53.490;14.376;2023-04-21T05:59:40;102040.44;;;12.58;64.84
65557;BME280;52200;53.490;14.376;2023-04-21T06:02:06;102038.19;;;12.35;63.36
65557;BME280;52200;53.490;14.376;2023-04-21T06:04:31;102036.75;;;12.14;64.14
65557;BME280;52200;53.490;14.376;2023-04-21T06:06:57;102029.31;;;11.93;64.45
65557;BME280;52200;53.490;14.376;2023-04-21T06:09:22;102041.59;;;11.56;64.90
65557;BME280;52200;53.490;14.376;2023-04-21T06:11:47;102038.50;;;11.21;64.85
65557;BME280;52200;53.490;14.376;2023-04-21T06:14:14;102043.09;;;10.68;66.11
65557;BME280;52200;53.490;14.376;2023-04-21T06:16:40;102046.34;;;10.89;66.96
65557;BME280;52200;53.490;14.376;2023-04-21T06:19:05;102036.19;;;10.90;67.08
65557;BME280;52200;53.490;14.376;2023-04-21T06:21:30;102038.72;;;10.90;67.29
65557;BME280;52200;53.490;14.376;2023-04-21T06:23:57;102041.34;;;10.75;66.41
65557;BME280;52200;53.490;14.376;2023-04-21T06:26:22;102040.47;;;10.80;66.00
65557;BME280;52200;53.490;14.376;2023-04-21T06:28:47;102039.50;;;11.02;66.69
65557;BME280;52200;53.490;14.376;2023-04-21T06:31:13;102045.41;;;11.02;66.37
65557;BME280;52200;53.490;14.376;2023-04-21T06:33:40;102036.06;;;11.09;65.76
65557;BME280;52200;53.490;14.376;2023-04-21T06:36:05;102028.19;;;11.35;65.02
65557;BME280;52200;53.490;14.376;2023-04-21T06:38:31;102025.56;;;11.46;64.64
65557;BME280;52200;53.490;14.376;2023-04-21T06:40:56;102036.56;;;11.48;64.87
65557;BME280;52200;53.490;14.376;2023-04-21T06:43:22;102032.13;;;11.69;64.60
65557;BME280;52200;53.490;14.376;2023-04-21T06:45:47;102026.91;;;11.78;63.81
65557;BME280;52200;53.490;14.376;2023-04-21T06:48:12;102030.22;;;11.88;63.82
65557;BME280;52200;53.490;14.376;2023-04-21T06:50:38;102033.56;;;11.91;63.87
65557;BME280;52200;53.490;14.376;2023-04-21T06:53:03;102026.56;;;12.12;63.58
65557;BME280;52200;53.490;14.376;2023-04-21T06:55:28;102028.06;;;12.30;63.54
65557;BME280;52200;53.490;14.376;2023-04-21T06:57:54;102021.78;;;12.54;63.76
65557;BME280;52200;53.490;14.376;2023-04-21T07:00:19;102021.75;;;12.57;63.30
65557;BME280;52200;53.490;14.376;2023-04-21T07:02:45;102018.88;;;12.79;62.76
65557;BME280;52200;53.490;14.376;2023-04-21T07:05:10;102018.44;;;13.07;63.09
65557;BME280;52200;53.490;14.376;2023-04-21T07:07:36;102013.28;;;13.10;61.74
65557;BME280;52200;53.490;14.376;2023-04-21T07:10:01;102010.41;;;13.29;61.76
65557;BME280;52200;53.490;14.376;2023-04-21T07:12:26;102014.44;;;13.45;61.72
65557;BME280;52200;53.490;14.376;2023-04-21T07:14:52;102012.00;;;13.36;61.93
65557;BME280;52200;53.490;14.376;2023-04-21T07:17:17;102012.34;;;13.66;61.17
65557;BME280;52200;53.490;14.376;2023-04-21T07:19:42;102021.91;;;14.00;61.33
65557;BME280;52200;53.490;14.376;2023-04-21T07:22:08;102018.66;;;13.92;60.58
65557;BME280;52200;53.490;14.376;2023-04-21T07:24:33;102005.41;;;14.15;59.05
65557;BME280;52200;53.490;14.376;2023-04-21T07:26:59;102010.47;;;14.57;59.77
65557;BME280;52200;53.490;14.376;2023-04-21T07:29:26;102004.19;;;14.72;57.37
65557;BME280;52200;53.490;14.376;2023-04-21T07:31:52;102004.22;;;14.71;55.04
65557;BME280;52200;53.490;14.376;2023-04-21T07:34:18;102004.22;;;15.07;55.56
65557;BME280;52200;53.490;14.376;2023-04-21T07:36:43;102006.56;;;15.16;52.30
65557;BME280;52200;53.490;14.376;2023-04-21T07:39:09;102005.38;;;15.28;52.39
65557;BME280;52200;53.490;14.376;2023-04-21T07:41:34;102013.72;;;15.36;52.96
65557;BME280;52200;53.490;14.376;2023-04-21T07:44:00;101997.75;;;15.58;53.37
65557;BME280;52200;53.490;14.376;2023-04-21T07:46:25;102004.97;;;15.75;51.99
65557;BME280;52200;53.490;14.376;2023-04-21T07:48:55;101996.28;;;15.80;52.21
65557;BME280;52200;53.490;14.376;2023-04-21T07:51:22;101995.50;;;16.10;52.03
65557;BME280;52200;53.490;14.376;2023-04-21T07:53:47;101997.63;;;16.24;50.17
65557;BME280;52200;53.490;14.376;2023-04-21T07:56:12;101999.41;;;16.22;50.08
65557;BME280;52200;53.490;14.376;2023-04-21T07:58:38;101999.59;;;16.16;51.41
65557;BME280;52200;53.490;14.376;2023-04-21T08:01:03;101998.72;;;16.45;50.69
65557;BME280;52200;53.490;14.376;2023-04-21T08:03:29;101996.03;;;16.48;48.81
65557;BME280;52200;53.490;14.376;2023-04-21T08:05:54;101994.72;;;16.63;49.53
65557;BME280;52200;53.490;14.376;2023-04-21T08:08:19;101995.44;;;16.67;49.18
65557;BME280;52200;53.490;14.376;2023-04-21T08:10:46;101991.38;;;16.61;49.49
65557;BME280;52200;53.490;14.376;2023-04-21T08:13:11;101994.75;;;16.62;50.52
65557;BME280;52200;53.490;14.376;2023-04-21T08:15:37;101996.47;;;16.88;50.34
65557;BME280;52200;53.490;14.376;2023-04-21T08:18:02;101990.41;;;17.17;49.59
65557;BME280;52200;53.490;14.376;2023-04-21T08:20:27;101982.19;;;17.33;48.44
65557;BME280;52200;53.490;14.376;2023-04-21T08:22:53;101980.00;;;17.46;51.13
65557;BME280;52200;53.490;14.376;2023-04-21T08:25:18;101977.88;;;17.57;47.79
65557;BME280;52200;53.490;14.376;2023-04-21T08:27:43;101970.66;;;17.91;49.19
65557;BME280;52200;53.490;14.376;2023-04-21T08:30:09;101974.78;;;18.18;49.87
65557;BME280;52200;53.490;14.376;2023-04-21T08:32:35;101965.31;;;17.97;46.45
65557;BME280;52200;53.490;14.376;2023-04-21T08:35:00;101977.22;;;17.76;46.40
65557;BME280;52200;53.490;14.376;2023-04-21T08:37:26;101965.81;;;17.83;47.02
65557;BME280;52200;53.490;14.376;2023-04-21T08:39:51;101967.06;;;17.96;47.09
65557;BME280;52200;53.490;14.376;2023-04-21T08:42:18;101966.66;;;18.07;46.89
65557;BME280;52200;53.490;14.376;2023-04-21T08:44:44;101963.31;;;18.05;46.13
65557;BME280;52200;53.490;14.376;2023-04-21T08:47:11;101963.56;;;18.21;46.02
65557;BME280;52200;53.490;14.376;2023-04-21T08:49:37;101968.59;;;18.24;46.17
65557;BME280;52200;53.490;14.376;2023-04-21T08:52:04;101955.09;;;18.40;45.92
65557;BME280;52200;53.490;14.376;2023-04-21T08:54:29;101956.38;;;18.29;46.03
65557;BME280;52200;53.490;14.376;2023-04-21T08:56:55;101951.63;;;18.41;46.73
65557;BME280;52200;53.490;14.376;2023-04-21T08:59:21;101958.28;;;18.67;46.58
65557;BME280;52200;53.490;14.376;2023-04-21T09:04:34;101954.88;;;18.87;44.73
65557;BME280;52200;53.490;14.376;2023-04-21T09:07:02;101962.09;;;18.58;45.08
65557;BME280;52200;53.490;14.376;2023-04-21T09:09:28;101956.78;;;18.41;45.37
65557;BME280;52200;53.490;14.376;2023-04-21T09:11:54;101961.88;;;18.42;46.04
65557;BME280;52200;53.490;14.376;2023-04-21T09:14:21;101958.28;;;18.67;45.08
65557;BME280;52200;53.490;14.376;2023-04-21T09:16:58;101957.47;;;18.87;45.63
65557;BME280;52200;53.490;14.376;2023-04-21T09:19:29;101959.06;;;18.69;44.56
65557;BME280;52200;53.490;14.376;2023-04-21T09:21:54;101953.28;;;18.84;45.98
65557;BME280;52200;53.490;14.376;2023-04-21T09:24:20;101947.06;;;19.11;46.19
65557;BME280;52200;53.490;14.376;2023-04-21T09:26:50;101952.53;;;19.03;43.96
65557;BME280;52200;53.490;14.376;2023-04-21T09:29:24;101951.63;;;18.41;43.29
65557;BME280;52200;53.490;14.376;2023-04-21T09:31:51;101946.19;;;18.26;44.58
65557;BME280;52200;53.490;14.376;2023-04-21T09:34:24;101943.41;;;18.53;43.99
65557;BME280;52200;53.490;14.376;2023-04-21T09:37:00;101947.94;;;18.68;43.18
65557;BME280;52200;53.490;14.376;2023-04-21T09:39:30;101945.34;;;18.68;42.67
65557;BME280;52200;53.490;14.376;2023-04-21T09:41:57;101932.63;;;18.86;43.98
65557;BME280;52200;53.490;14.376;2023-04-21T09:44:29;101938.41;;;18.71;42.13
65557;BME280;52200;53.490;14.376;2023-04-21T09:46:59;101940.16;;;18.70;40.72
65557;BME280;52200;53.490;14.376;2023-04-21T09:49:29;101933.16;;;18.94;41.84
65557;BME280;52200;53.490;14.376;2023-04-21T09:51:56;101939.28;;;18.92;41.57
65557;BME280;52200;53.490;14.376;2023-04-21T09:54:29;101928.38;;;18.85;41.91
65557;BME280;52200;53.490;14.376;2023-04-21T09:56:58;101917.09;;;18.67;42.32
65557;BME280;52200;53.490;14.376;2023-04-21T09:59:53;101927.75;;;18.80;42.49
65557;BME280;52200;53.490;14.376;2023-04-21T10:02:24;101931.59;;;18.90;41.66
65557;BME280;52200;53.490;14.376;2023-04-21T10:04:50;101921.06;;;18.96;41.69
65557;BME280;52200;53.490;14.376;2023-04-21T10:07:16;101919.25;;;18.98;40.08
65557;BME280;52200;53.490;14.376;2023-04-21T10:09:47;101911.03;;;19.09;39.90
65557;BME280;52200;53.490;14.376;2023-04-21T10:12:14;101914.69;;;19.24;40.52
65557;BME280;52200;53.490;14.376;2023-04-21T10:14:40;101921.97;;;19.54;40.36
65557;BME280;52200;53.490;14.376;2023-04-21T10:17:07;101912.50;;;19.36;39.76
65557;BME280;52200;53.490;14.376;2023-04-21T10:19:35;101906.66;;;19.11;38.49
65557;BME280;52200;53.490;14.376;2023-04-21T10:22:07;101913.84;;;19.05;39.10
65557;BME280;52200;53.490;14.376;2023-04-21T10:24:41;101917.41;;;19.21;38.59
65557;BME280;52200;53.490;14.376;2023-04-21T10:27:11;101899.56;;;19.16;39.20
65557;BME280;52200;53.490;14.376;2023-04-21T10:29:36;101897.56;;;19.42;38.32
65557;BME280;52200;53.490;14.376;2023-04-21T10:32:02;101895.47;;;19.70;38.84
65557;BME280;52200;53.490;14.376;2023-04-21T10:34:33;101897.56;;;19.23;38.31
65557;BME280;52200;53.490;14.376;2023-04-21T10:39:55;101884.81;;;19.20;37.63
65557;BME280;52200;53.490;14.376;2023-04-21T10:42:27;101875.34;;;19.40;39.08
65557;BME280;52200;53.490;14.376;2023-04-21T10:49:50;101863.63;;;19.71;38.32
65557;BME280;52200;53.490;14.376;2023-04-21T10:52:17;101872.34;;;19.49;38.58
65557;BME280;52200;53.490;14.376;2023-04-21T10:57:17;101863.66;;;19.32;38.03
65557;BME280;52200;53.490;14.376;2023-04-21T10:59:44;101862.84;;;19.69;38.15
65557;BME280;52200;53.490;14.376;2023-04-21T11:02:11;101853.69;;;19.63;38.36
65557;BME280;52200;53.490;14.376;2023-04-21T11:04:37;101864.31;;;19.55;38.83
65557;BME280;52200;53.490;14.376;2023-04-21T11:07:12;101859.94;;;19.57;38.10
65557;BME280;52200;53.490;14.376;2023-04-21T11:09:39;101848.66;;;19.60;38.61
65557;BME280;52200;53.490;14.376;2023-04-21T11:12:13;101853.53;;;19.85;38.21
65557;BME280;52200;53.490;14.376;2023-04-21T11:14:40;101852.94;;;19.97;38.57
65557;BME280;52200;53.490;14.376;2023-04-21T11:17:11;101846.41;;;20.08;37.32
65557;BME280;52200;53.490;14.376;2023-04-21T11:19:38;101836.38;;;20.19;38.76
65557;BME280;52200;53.490;14.376;2023-04-21T11:22:04;101845.63;;;20.06;37.26
65557;BME280;52200;53.490;14.376;2023-04-21T11:24:30;101829.16;;;19.54;36.15
65557;BME280;52200;53.490;14.376;2023-04-21T11:26:56;101845.03;;;19.83;36.23
65557;BME280;52200;53.490;14.376;2023-04-21T11:29:21;101836.75;;;19.57;34.71
65557;BME280;52200;53.490;14.376;2023-04-21T11:31:47;101834.13;;;19.40;36.30
65557;BME280;52200;53.490;14.376;2023-04-21T11:34:15;101838.22;;;19.63;36.04
65557;BME280;52200;53.490;14.376;2023-04-21T11:36:44;101840.34;;;19.72;34.31
65557;BME280;52200;53.490;14.376;2023-04-21T11:39:12;101835.25;;;19.71;33.29
65557;BME280;52200;53.490;14.376;2023-04-21T11:41:39;101824.09;;;19.33;34.41
65557;BME280;52200;53.490;14.376;2023-04-21T11:44:08;101823.47;;;19.28;35.95
65557;BME280;52200;53.490;14.376;2023-04-21T11:46:34;101826.13;;;19.63;36.51
65557;BME280;52200;53.490;14.376;2023-04-21T11:49:05;101813.94;;;19.67;34.05
65557;BME280;52200;53.490;14.376;2023-04-21T11:51:41;101814.34;;;19.77;36.20
65557;BME280;52200;53.490;14.376;2023-04-21T11:54:12;101808.34;;;19.76;34.10
65557;BME280;52200;53.490;14.376;2023-04-21T11:56:40;101808.34;;;19.76;33.33
65557;BME280;52200;53.490;14.376;2023-04-21T11:59:09;101811.38;;;19.67;34.35
65557;BME280;52200;53.490;14.376;2023-04-21T12:01:46;101806.28;;;19.65;35.31
65557;BME280;52200;53.490;14.376;2023-04-21T12:04:13;101805.00;;;19.74;34.45
65557;BME280;52200;53.490;14.376;2023-04-21T12:06:40;101803.63;;;19.67;33.96
65557;BME280;52200;53.490;14.376;2023-04-21T12:09:06;101802.00;;;19.84;33.91
65557;BME280;52200;53.490;14.376;2023-04-21T12:11:33;101796.78;;;20.03;34.25
65557;BME280;52200;53.490;14.376;2023-04-21T12:13:59;101792.72;;;19.99;35.31
65557;BME280;52200;53.490;14.376;2023-04-21T12:16:26;101787.69;;;19.95;34.86
65557;BME280;52200;53.490;14.376;2023-04-21T12:18:56;101788.16;;;19.67;34.85
65557;BME280;52200;53.490;14.376;2023-04-21T12:21:26;101801.22;;;19.81;34.93
65557;BME280;52200;53.490;14.376;2023-04-21T12:23:52;101784.59;;;19.70;34.21
65557;BME280;52200;53.490;14.376;2023-04-21T12:26:17;101785.69;;;20.01;34.44
65557;BME280;52200;53.490;14.376;2023-04-21T12:28:43;101779.69;;;20.18;34.50
65557;BME280;52200;53.490;14.376;2023-04-21T12:31:08;101780.31;;;19.88;33.69
65557;BME280;52200;53.490;14.376;2023-04-21T12:33:34;101780.84;;;19.94;34.23
65557;BME280;52200;53.490;14.376;2023-04-21T12:35:59;101770.22;;;20.01;35.37
65557;BME280;52200;53.490;14.376;2023-04-21T12:38:24;101766.56;;;19.87;33.37
65557;BME280;52200;53.490;14.376;2023-04-21T12:40:50;101763.69;;;19.93;34.93
65557;BME280;52200;53.490;14.376;2023-04-21T12:43:15;101774.19;;;19.90;35.09
65557;BME280;52200;53.490;14.376;2023-04-21T12:45:41;101765.38;;;19.94;33.68
65557;BME280;52200;53.490;14.376;2023-04-21T12:48:06;101761.75;;;19.99;33.64
65557;BME280;52200;53.490;14.376;2023-04-21T12:50:31;101750.31;;;20.20;33.02
65557;BME280;52200;53.490;14.376;2023-04-21T12:52:58;101745.16;;;20.20;33.68
65557;BME280;52200;53.490;14.376;2023-04-21T12:55:23;101733.09;;;20.54;34.11